createdAt,value
2022-12-08T00:01:06.782Z,78.91
2022-12-08T00:03:34.175Z,78.48
2022-12-08T00:06:20.957Z,78.32
2022-12-08T00:09:06.307Z,78.63
2022-12-08T00:11:32.702Z,78.10
2022-12-08T00:14:00.037Z,78.02
2022-12-08T00:16:26.465Z,77.44
2022-12-08T00:18:52.847Z,77.88
2022-12-08T00:21:19.206Z,78.42
2022-12-08T00:23:45.576Z,78.29
2022-12-08T00:26:11.995Z,78.32
2022-12-08T00:28:38.339Z,78.15
2022-12-08T00:31:09.446Z,78.64
2022-12-08T00:33:35.941Z,77.86
2022-12-08T00:36:10.614Z,78.32
2022-12-08T00:38:37.595Z,78.13
2022-12-08T00:41:08.788Z,78.77
2022-12-08T00:43:35.142Z,78.11
2022-12-08T00:46:01.613Z,78.61
2022-12-08T00:48:28.147Z,78.89
2022-12-08T00:50:54.517Z,78.34
2022-12-08T00:53:20.903Z,78.67
2022-12-08T00:55:47.496Z,79.22
2022-12-08T00:58:13.908Z,78.64
2022-12-08T01:00:43.895Z,79.26
2022-12-08T01:03:11.650Z,78.64
2022-12-08T01:05:38.434Z,78.63
2022-12-08T01:08:09.088Z,78.80
2022-12-08T01:10:36.633Z,79.01
2022-12-08T01:13:03.745Z,78.88
2022-12-08T01:15:30.137Z,79.21
2022-12-08T01:17:56.501Z,79.33
2022-12-08T01:20:22.853Z,79.28
2022-12-08T01:22:49.190Z,79.45
2022-12-08T01:25:15.592Z,79.42
2022-12-08T01:27:41.934Z,79.76
2022-12-08T01:30:09.098Z,79.45
2022-12-08T01:32:35.438Z,79.29
2022-12-08T01:35:01.828Z,79.45
2022-12-08T01:37:29.579Z,79.33
2022-12-08T01:39:55.937Z,79.66
2022-12-08T01:42:23.239Z,80.14
2022-12-08T01:44:54.195Z,79.72
2022-12-08T01:47:22.212Z,80.22
2022-12-08T01:49:48.683Z,79.92
2022-12-08T01:52:22.187Z,79.98
2022-12-08T01:54:57.837Z,79.57
2022-12-08T01:57:50.308Z,80.06
2022-12-08T02:00:19.901Z,80.06
2022-12-08T02:02:48.983Z,80.01
2022-12-08T02:05:16.440Z,80.18
2022-12-08T02:07:43.956Z,79.47
2022-12-08T02:10:14.679Z,80.25
2022-12-08T02:12:41.067Z,79.99
2022-12-08T02:15:07.945Z,80.15
2022-12-08T02:17:51.720Z,80.13
2022-12-08T02:20:37.882Z,80.36
2022-12-08T02:23:27.303Z,80.52
2022-12-08T02:26:08.604Z,80.55
2022-12-08T02:29:09.061Z,79.98
2022-12-08T02:32:03.248Z,79.97
2022-12-08T02:34:35.513Z,79.97
2022-12-08T02:37:35.652Z,79.67
2022-12-08T02:40:07.450Z,79.57
2022-12-08T02:42:44.125Z,79.40
2022-12-08T02:45:24.981Z,79.62
2022-12-08T02:47:52.325Z,79.57
2022-12-08T02:50:19.333Z,79.40
2022-12-08T02:52:47.601Z,79.89
2022-12-08T02:55:26.292Z,79.15
2022-12-08T02:58:23.723Z,79.04
2022-12-08T03:01:08.520Z,78.97
2022-12-08T03:03:50.979Z,78.63
2022-12-08T03:06:32.421Z,78.04
2022-12-08T03:09:20.837Z,78.60
2022-12-08T03:12:18.957Z,78.28
2022-12-08T03:14:53.073Z,78.14
2022-12-08T03:17:22.971Z,78.13
2022-12-08T03:19:49.697Z,77.96
2022-12-08T03:22:21.941Z,78.32
2022-12-08T03:24:49.236Z,78.12
2022-12-08T03:27:20.027Z,78.37
2022-12-08T03:29:52.103Z,78.61
2022-12-08T03:32:40.102Z,78.98
2022-12-08T03:35:13.933Z,78.83
2022-12-08T03:37:40.911Z,78.30
2022-12-08T03:40:10.616Z,78.21
2022-12-08T03:42:36.973Z,78.80
2022-12-08T03:45:04.609Z,78.50
2022-12-08T03:47:31.018Z,77.71
2022-12-08T03:49:57.361Z,78.07
2022-12-08T03:52:23.721Z,77.93
2022-12-08T03:54:50.113Z,77.87
2022-12-08T03:57:16.456Z,77.81
2022-12-08T03:59:42.856Z,77.79
2022-12-08T04:02:09.279Z,77.92
2022-12-08T04:04:35.650Z,78.09
2022-12-08T04:07:02.004Z,78.68
2022-12-08T04:09:28.343Z,78.21
2022-12-08T04:11:54.714Z,78.16
2022-12-08T04:14:21.084Z,77.83
2022-12-08T04:16:47.435Z,77.91
2022-12-08T04:19:13.792Z,77.69
2022-12-08T04:21:40.144Z,78.28
2022-12-08T04:24:06.905Z,78.77
2022-12-08T04:26:33.300Z,78.99
2022-12-08T04:28:59.646Z,78.97
2022-12-08T04:31:26.059Z,78.54
2022-12-08T04:33:52.641Z,79.04
2022-12-08T04:36:19.047Z,79.26
2022-12-08T04:38:45.372Z,79.35
2022-12-08T04:41:11.856Z,78.88
2022-12-08T04:43:38.191Z,79.34
2022-12-08T04:46:08.348Z,79.83
2022-12-08T04:48:36.679Z,80.12
2022-12-08T04:51:03.028Z,79.66
2022-12-08T04:53:29.364Z,79.80
2022-12-08T04:55:55.737Z,79.82
2022-12-08T04:58:22.164Z,80.07
2022-12-08T05:00:48.958Z,80.09
2022-12-08T05:03:16.508Z,80.51
2022-12-08T05:05:43.879Z,80.40
2022-12-08T05:08:10.871Z,80.79
2022-12-08T05:10:37.664Z,80.83
2022-12-08T05:13:04.076Z,80.59
2022-12-08T05:15:30.508Z,81.13
2022-12-08T05:17:56.880Z,81.20
2022-12-08T05:20:23.335Z,81.07
2022-12-08T05:22:49.981Z,81.66
2022-12-08T05:25:16.346Z,81.36
2022-12-08T05:27:43.127Z,80.99
2022-12-08T05:30:09.634Z,81.30
2022-12-08T05:32:36.008Z,80.50
2022-12-08T05:35:02.360Z,81.39
2022-12-08T05:37:28.753Z,80.94
2022-12-08T05:39:55.147Z,81.25
2022-12-08T05:42:24.742Z,81.50
2022-12-08T05:44:52.004Z,80.99
2022-12-08T05:47:18.372Z,80.74
2022-12-08T05:49:44.951Z,80.79
2022-12-08T05:52:11.299Z,81.02
2022-12-08T05:54:38.113Z,80.84
2022-12-08T05:57:04.585Z,80.42
2022-12-08T05:59:30.991Z,79.78
2022-12-08T06:01:57.393Z,80.28
2022-12-08T06:04:23.784Z,80.19
2022-12-08T06:06:50.148Z,79.80
2022-12-08T06:09:16.549Z,79.91
2022-12-08T06:11:43.000Z,80.25
2022-12-08T06:14:12.544Z,80.20
2022-12-08T06:16:39.127Z,80.75
2022-12-08T06:19:05.525Z,80.24
2022-12-08T06:21:31.887Z,80.35
2022-12-08T06:23:58.275Z,80.70
2022-12-08T06:26:24.811Z,80.55
2022-12-08T06:28:51.964Z,80.06
2022-12-08T06:31:26.453Z,80.55
2022-12-08T06:33:54.123Z,80.20
2022-12-08T06:36:23.404Z,79.77
2022-12-08T06:38:50.217Z,79.32
2022-12-08T06:41:17.188Z,79.74
2022-12-08T06:43:44.245Z,79.45
2022-12-08T06:46:14.624Z,78.92
2022-12-08T06:48:41.456Z,78.79
2022-12-08T06:51:16.168Z,79.12
2022-12-08T06:53:43.475Z,79.81
2022-12-08T06:56:11.243Z,79.57
2022-12-08T06:58:37.686Z,80.16
2022-12-08T07:01:12.482Z,79.77
2022-12-08T07:03:39.796Z,79.99
2022-12-08T07:06:06.847Z,79.62
2022-12-08T07:08:34.093Z,80.18
2022-12-08T07:11:06.657Z,80.12
2022-12-08T07:13:33.011Z,79.98
2022-12-08T07:15:59.357Z,80.04
2022-12-08T07:18:25.723Z,79.91
2022-12-08T07:20:52.074Z,80.24
2022-12-08T07:23:18.421Z,80.32
2022-12-08T07:25:44.789Z,80.19
2022-12-08T07:28:11.557Z,80.15
2022-12-08T07:30:38.990Z,79.82
2022-12-08T07:33:06.336Z,80.51
2022-12-08T07:35:34.835Z,80.75
2022-12-08T07:38:01.610Z,80.94
2022-12-08T07:40:28.268Z,80.55
2022-12-08T07:42:54.740Z,80.86
2022-12-08T07:45:21.089Z,81.06
2022-12-08T07:47:47.435Z,81.28
2022-12-08T07:50:13.845Z,80.82
2022-12-08T07:52:40.183Z,81.01
2022-12-08T07:55:07.018Z,81.17
2022-12-08T07:57:33.368Z,81.52
2022-12-08T07:59:59.718Z,81.38
2022-12-08T08:02:26.586Z,81.18
2022-12-08T08:04:53.615Z,81.60
2022-12-08T08:07:20.142Z,81.14
2022-12-08T08:09:46.567Z,81.26
2022-12-08T08:15:00.400Z,80.93
2022-12-08T08:17:26.993Z,81.28
2022-12-08T08:19:53.418Z,80.49
2022-12-08T08:22:19.804Z,80.13
2022-12-08T08:24:46.202Z,81.43
2022-12-08T08:27:13.926Z,81.15
2022-12-08T08:29:43.327Z,80.74
2022-12-08T08:32:09.760Z,81.09
2022-12-08T08:34:36.225Z,80.16
2022-12-08T08:37:02.703Z,79.99
2022-12-08T08:39:30.163Z,79.85
2022-12-08T08:41:56.495Z,80.03
2022-12-08T08:44:22.893Z,79.97
2022-12-08T08:46:49.369Z,80.00
2022-12-08T08:49:15.944Z,79.68
2022-12-08T08:51:42.376Z,79.55
2022-12-08T08:54:08.711Z,79.31
2022-12-08T08:56:35.074Z,79.36
2022-12-08T08:59:02.977Z,79.72
2022-12-08T09:01:29.819Z,79.05
2022-12-08T09:03:56.785Z,79.13
2022-12-08T09:06:24.160Z,79.01
2022-12-08T09:08:50.787Z,78.03
2022-12-08T09:11:18.613Z,78.55
2022-12-08T09:13:47.729Z,78.31
2022-12-08T09:16:14.116Z,77.97
2022-12-08T09:18:40.663Z,77.47
2022-12-08T09:21:09.989Z,77.84
2022-12-08T09:23:36.341Z,77.18
2022-12-08T09:26:04.946Z,76.57
2022-12-08T09:28:32.212Z,76.44
2022-12-08T09:30:58.731Z,77.18
2022-12-08T09:33:25.240Z,77.01
2022-12-08T09:35:51.615Z,76.52
2022-12-08T09:38:18.016Z,76.68
2022-12-08T09:40:52.930Z,76.46
2022-12-08T09:43:31.394Z,75.48
2022-12-08T09:45:58.459Z,75.36
2022-12-08T09:48:34.115Z,75.28
2022-12-08T09:51:01.054Z,75.09
2022-12-08T09:53:37.181Z,73.89
2022-12-08T09:56:06.917Z,74.58
2022-12-08T09:58:58.374Z,74.25
2022-12-08T10:01:31.002Z,74.43
2022-12-08T10:03:58.018Z,74.05
2022-12-08T10:06:30.964Z,74.21
2022-12-08T10:09:21.130Z,74.39
2022-12-08T10:11:58.537Z,73.95
2022-12-08T10:14:56.103Z,72.93
2022-12-08T10:17:28.715Z,72.75
2022-12-08T10:20:02.290Z,72.53
2022-12-08T10:22:36.712Z,72.45
2022-12-08T10:25:11.949Z,72.02
2022-12-08T10:27:38.321Z,71.26
2022-12-08T10:30:16.058Z,71.86
2022-12-08T10:32:45.607Z,70.86
2022-12-08T10:35:13.772Z,71.63
2022-12-08T10:37:40.893Z,71.81
2022-12-08T10:40:12.695Z,71.66
2022-12-08T10:42:46.108Z,71.68
2022-12-08T10:45:37.368Z,72.31
2022-12-08T10:48:16.090Z,71.40
2022-12-08T10:50:59.630Z,70.83
2022-12-08T10:53:28.580Z,70.73
2022-12-08T10:55:57.945Z,70.54
2022-12-08T10:58:33.835Z,71.88
2022-12-08T11:01:10.871Z,70.89
2022-12-08T11:03:50.870Z,70.40
2022-12-08T11:06:20.045Z,69.17
2022-12-08T11:08:53.876Z,69.06
2022-12-08T11:11:25.997Z,68.83
2022-12-08T11:13:55.917Z,69.49
2022-12-08T11:16:23.246Z,68.52
2022-12-08T11:18:57.013Z,69.15
2022-12-08T11:21:34.589Z,69.03
2022-12-08T11:24:18.671Z,69.23
2022-12-08T11:27:00.296Z,69.01
2022-12-08T11:29:31.412Z,68.76
2022-12-08T11:32:02.851Z,69.44
2022-12-08T11:34:40.195Z,69.02
2022-12-08T11:37:15.144Z,69.16
2022-12-08T11:39:47.093Z,68.06
2022-12-08T11:42:16.337Z,66.78
2022-12-08T11:44:50.381Z,67.21
2022-12-08T11:47:50.107Z,66.17
2022-12-08T11:50:28.632Z,66.71
2022-12-08T11:52:58.042Z,66.42
2022-12-08T11:55:39.090Z,65.94
2022-12-08T11:58:16.340Z,66.07
2022-12-08T12:00:42.741Z,66.08
2022-12-08T12:03:34.310Z,66.00
2022-12-08T12:06:37.699Z,65.28
2022-12-08T12:09:14.384Z,65.77
2022-12-08T12:12:04.932Z,65.47
2022-12-08T12:14:42.873Z,66.01
2022-12-08T12:17:38.625Z,65.75
2022-12-08T12:20:14.366Z,65.73
2022-12-08T12:22:42.525Z,65.86
2022-12-08T12:25:18.408Z,65.34
2022-12-08T12:27:45.663Z,65.54
2022-12-08T12:30:24.444Z,64.97
2022-12-08T12:32:56.687Z,65.61
2022-12-08T12:35:30.606Z,65.69
2022-12-08T12:38:02.404Z,65.40
2022-12-08T12:40:40.626Z,65.48
2022-12-08T12:43:09.846Z,65.57
2022-12-08T12:45:43.376Z,66.00
2022-12-08T12:48:09.799Z,65.22
2022-12-08T12:50:49.283Z,66.28
2022-12-08T12:53:15.581Z,66.40
2022-12-08T12:56:00.587Z,66.31
2022-12-08T12:58:29.983Z,66.69
2022-12-08T13:01:08.559Z,66.04
2022-12-08T13:03:35.307Z,65.77
2022-12-08T13:06:02.141Z,66.69
2022-12-08T13:08:28.612Z,66.26
2022-12-08T13:11:03.012Z,66.28
2022-12-08T13:13:29.848Z,65.68
2022-12-08T13:16:19.081Z,66.57
2022-12-08T13:18:51.129Z,66.46
2022-12-08T13:21:21.081Z,66.73
2022-12-08T13:24:08.768Z,66.67
2022-12-08T13:26:45.449Z,66.36
2022-12-08T13:29:25.862Z,66.78
2022-12-08T13:31:59.016Z,66.90
2022-12-08T13:34:34.618Z,66.94
2022-12-08T13:37:03.993Z,66.72
2022-12-08T13:39:40.935Z,66.44
2022-12-08T13:42:46.921Z,67.05
2022-12-08T13:45:39.763Z,66.35
2022-12-08T13:49:03.379Z,67.21
2022-12-08T13:53:34.152Z,67.08
2022-12-08T13:57:30.878Z,66.64
2022-12-08T14:00:06.016Z,67.68
2022-12-08T14:02:43.749Z,67.40
2022-12-08T14:05:26.578Z,67.47
2022-12-08T14:08:01.272Z,67.32
2022-12-08T14:10:32.054Z,67.72
2022-12-08T14:13:05.404Z,68.08
2022-12-08T14:15:38.123Z,68.42
2022-12-08T14:18:05.664Z,68.26
2022-12-08T14:20:51.975Z,68.79
2022-12-08T14:23:18.626Z,68.49
2022-12-08T14:25:48.090Z,68.52
2022-12-08T14:28:14.549Z,68.76
2022-12-08T14:30:40.977Z,68.63
2022-12-08T14:33:14.322Z,69.28
2022-12-08T14:35:40.820Z,69.49
2022-12-08T14:38:14.288Z,69.87
2022-12-08T14:40:43.338Z,69.74
2022-12-08T14:43:09.618Z,69.75
2022-12-08T14:45:44.799Z,69.96
2022-12-08T14:48:27.837Z,69.95
2022-12-08T14:50:59.720Z,70.10
2022-12-08T14:53:29.358Z,71.00
2022-12-08T14:55:55.761Z,70.52
2022-12-08T14:58:27.846Z,70.46
2022-12-08T15:00:58.357Z,70.24
2022-12-08T15:03:30.937Z,70.68
2022-12-08T15:06:02.931Z,70.62
2022-12-08T15:08:30.838Z,71.11
2022-12-08T15:11:26.340Z,70.29
2022-12-08T15:13:54.320Z,70.43
2022-12-08T15:16:39.477Z,70.27
2022-12-08T15:19:33.478Z,70.85
2022-12-08T15:22:16.623Z,71.51
2022-12-08T15:24:42.944Z,71.29
2022-12-08T15:27:18.384Z,71.40
2022-12-08T15:29:46.260Z,71.83
2022-12-08T15:32:16.623Z,72.00
2022-12-08T15:34:43.068Z,71.70
2022-12-08T15:37:20.514Z,71.61
2022-12-08T15:39:46.913Z,71.96
2022-12-08T15:42:13.595Z,72.02
2022-12-08T15:44:40.593Z,71.93
2022-12-08T15:47:14.847Z,72.23
2022-12-08T15:49:41.205Z,71.80
2022-12-08T15:52:16.627Z,71.67
2022-12-08T15:54:43.089Z,71.83
2022-12-08T15:57:22.051Z,71.74
2022-12-08T15:59:52.545Z,71.65
2022-12-08T16:02:22.622Z,71.25
2022-12-08T16:07:38.038Z,71.42
2022-12-08T16:10:06.888Z,72.77
2022-12-08T16:15:55.492Z,71.17
2022-12-08T16:18:28.432Z,71.49
2022-12-08T16:23:44.291Z,71.13
2022-12-08T16:26:28.322Z,70.66
2022-12-08T16:29:01.853Z,71.19
2022-12-08T16:31:28.468Z,70.70
2022-12-08T16:33:54.933Z,71.17
2022-12-08T16:36:21.296Z,71.10
2022-12-08T16:38:47.692Z,70.15
2022-12-08T16:41:33.535Z,71.21
2022-12-08T16:44:05.046Z,70.69
2022-12-08T16:46:31.944Z,70.33
2022-12-08T16:48:58.927Z,70.68
2022-12-08T16:51:27.255Z,70.01
2022-12-08T16:53:55.144Z,70.34
2022-12-08T16:56:26.383Z,70.55
2022-12-08T16:58:58.440Z,69.54
2022-12-08T17:01:24.848Z,70.19
2022-12-08T17:04:14.461Z,69.76
2022-12-08T17:06:37.638Z,70.08
2022-12-08T17:09:05.055Z,70.01
2022-12-08T17:11:37.508Z,70.31
2022-12-08T17:14:09.087Z,70.15
2022-12-08T17:16:35.672Z,70.08
2022-12-08T17:19:02.124Z,70.20
2022-12-08T17:21:28.490Z,69.85
2022-12-08T17:23:54.894Z,70.01
2022-12-08T17:26:21.244Z,70.28
2022-12-08T17:29:03.009Z,69.57
2022-12-08T17:31:32.116Z,69.72
2022-12-08T17:34:00.520Z,70.03
2022-12-08T17:36:26.947Z,69.88
2022-12-08T17:38:53.801Z,69.99
2022-12-08T17:41:20.190Z,69.91
2022-12-08T17:43:46.530Z,70.40
2022-12-08T17:46:17.694Z,70.06
2022-12-08T17:48:44.448Z,70.60
2022-12-08T17:51:10.832Z,69.88
2022-12-08T17:53:39.919Z,69.97
2022-12-08T17:56:13.525Z,70.01
2022-12-08T17:58:39.868Z,69.99
2022-12-08T18:01:10.887Z,70.26
2022-12-08T18:03:38.453Z,69.78
2022-12-08T18:06:09.968Z,70.64
2022-12-08T18:08:37.209Z,70.14
2022-12-08T18:11:04.647Z,69.69
2022-12-08T18:13:31.709Z,70.47
2022-12-08T18:15:58.281Z,70.65
2022-12-08T18:18:24.733Z,70.49
2022-12-08T18:20:51.043Z,71.00
2022-12-08T18:23:18.061Z,69.84
2022-12-08T18:25:44.830Z,70.29
2022-12-08T18:28:11.473Z,70.15
2022-12-08T18:30:38.983Z,69.67
2022-12-08T18:33:07.333Z,70.20
2022-12-08T18:35:34.376Z,70.02
2022-12-08T18:38:00.876Z,70.44
2022-12-08T18:40:28.092Z,70.12
2022-12-08T18:42:54.653Z,70.22
2022-12-08T18:45:22.801Z,70.15
2022-12-08T18:47:51.069Z,69.82
2022-12-08T18:50:17.949Z,70.11
2022-12-08T18:52:45.908Z,70.17
2022-12-08T18:55:12.758Z,70.76
2022-12-08T18:57:41.638Z,70.52
2022-12-08T19:00:10.353Z,69.74
2022-12-08T19:02:38.377Z,69.97
2022-12-08T19:05:06.144Z,70.07
2022-12-08T19:07:32.513Z,70.07
2022-12-08T19:09:59.326Z,70.11
2022-12-08T19:12:26.252Z,69.89
2022-12-08T19:14:52.952Z,69.81
2022-12-08T19:17:19.478Z,69.65
2022-12-08T19:19:45.868Z,69.34
2022-12-08T19:22:12.376Z,69.37
2022-12-08T19:24:38.795Z,69.25
2022-12-08T19:27:06.201Z,69.71
2022-12-08T19:29:32.662Z,68.87
2022-12-08T19:32:00.227Z,69.25
2022-12-08T19:34:26.823Z,69.44
2022-12-08T19:36:53.201Z,68.38
2022-12-08T19:39:41.193Z,69.49
2022-12-08T19:42:34.448Z,69.24
2022-12-08T19:45:05.355Z,69.04
2022-12-08T19:47:31.798Z,69.07
2022-12-08T19:50:18.270Z,68.88
2022-12-08T19:52:44.825Z,69.14
2022-12-08T19:55:12.076Z,69.21
2022-12-08T19:57:38.695Z,69.23
2022-12-08T20:00:06.697Z,69.06
2022-12-08T20:02:33.264Z,69.29
2022-12-08T20:04:59.819Z,69.51
2022-12-08T20:07:26.238Z,69.29
2022-12-08T20:09:52.579Z,69.29
2022-12-08T20:12:18.941Z,69.46
2022-12-08T20:14:46.234Z,69.15
2022-12-08T20:17:12.894Z,69.00
2022-12-08T20:19:39.389Z,69.44
2022-12-08T20:22:05.777Z,70.39
2022-12-08T20:24:32.228Z,70.26
2022-12-08T20:26:58.632Z,69.54
2022-12-08T20:29:24.968Z,70.25
2022-12-08T20:31:51.435Z,70.45
2022-12-08T20:34:19.288Z,70.72
2022-12-08T20:36:46.503Z,71.28
2022-12-08T20:39:14.945Z,71.70
2022-12-08T20:41:42.750Z,71.68
2022-12-08T20:44:09.808Z,72.29
2022-12-08T20:46:36.261Z,72.44
2022-12-08T20:49:04.302Z,73.30
2022-12-08T20:51:32.522Z,73.33
2022-12-08T20:53:59.322Z,73.73
2022-12-08T20:56:26.529Z,73.95
2022-12-08T20:58:54.255Z,74.32
2022-12-08T21:01:22.674Z,74.16
2022-12-08T21:03:49.495Z,74.46
2022-12-08T21:06:16.360Z,75.35
2022-12-08T21:08:43.101Z,75.01
2022-12-08T21:11:10.109Z,75.39
2022-12-08T21:13:37.903Z,75.57
2022-12-08T21:16:05.069Z,75.52
2022-12-08T21:18:37.455Z,75.52
2022-12-08T21:21:09.149Z,75.76
2022-12-08T21:23:35.947Z,75.70
2022-12-08T21:26:03.186Z,75.77
2022-12-08T21:28:29.794Z,75.92
2022-12-08T21:30:56.423Z,76.39
2022-12-08T21:33:22.945Z,75.86
2022-12-08T21:35:49.609Z,76.75
2022-12-08T21:38:16.117Z,77.01
2022-12-08T21:40:42.887Z,77.40
2022-12-08T21:43:09.421Z,77.73
2022-12-08T21:45:35.860Z,77.93
2022-12-08T21:48:10.997Z,78.13
2022-12-08T21:50:38.004Z,78.46
2022-12-08T21:53:04.526Z,78.19
2022-12-08T21:55:31.035Z,78.53
2022-12-08T21:58:00.766Z,79.15
2022-12-08T22:00:27.554Z,79.50
2022-12-08T22:02:54.345Z,79.12
2022-12-08T22:05:20.949Z,79.82
2022-12-08T22:07:47.578Z,80.45
2022-12-08T22:10:14.094Z,80.81
2022-12-08T22:12:40.645Z,80.78
2022-12-08T22:15:09.073Z,81.00
2022-12-08T22:17:38.346Z,81.37
2022-12-08T22:20:11.726Z,80.76
2022-12-08T22:22:39.236Z,80.94
2022-12-08T22:25:07.395Z,81.22
2022-12-08T22:27:34.231Z,81.55
2022-12-08T22:30:00.841Z,81.45
2022-12-08T22:32:27.432Z,81.25
2022-12-08T22:34:54.111Z,81.71
2022-12-08T22:37:21.160Z,81.92
2022-12-08T22:39:47.952Z,81.81
2022-12-08T22:42:15.213Z,81.91
2022-12-08T22:44:41.749Z,81.77
2022-12-08T22:47:08.500Z,81.43
2022-12-08T22:49:36.560Z,81.23
2022-12-08T22:52:03.358Z,81.39
2022-12-08T22:54:29.923Z,82.00
2022-12-08T22:56:56.355Z,82.05
2022-12-08T22:59:22.720Z,81.97
2022-12-08T23:01:49.414Z,81.62
2022-12-08T23:04:18.408Z,81.04
2022-12-08T23:06:45.227Z,81.18
2022-12-08T23:09:11.790Z,81.87
2022-12-08T23:11:38.456Z,81.15
2022-12-08T23:14:04.926Z,81.37
2022-12-08T23:16:31.513Z,81.69
2022-12-08T23:18:59.149Z,82.15
2022-12-08T23:21:25.586Z,81.54
2022-12-08T23:23:51.933Z,81.78
2022-12-08T23:26:22.399Z,82.80
2022-12-08T23:28:49.181Z,82.15
2022-12-08T23:31:16.067Z,82.06
2022-12-08T23:33:43.212Z,82.27
2022-12-08T23:36:10.996Z,82.23
2022-12-08T23:38:37.813Z,82.25
2022-12-08T23:41:06.980Z,81.80
2022-12-08T23:43:34.539Z,81.70
2022-12-08T23:46:01.341Z,81.08
2022-12-08T23:48:28.793Z,81.08
2022-12-08T23:50:56.938Z,81.83
2022-12-08T23:53:23.499Z,81.48
2022-12-08T23:55:49.849Z,81.39
2022-12-08T23:58:16.215Z,81.91
